Fort Walton Beach, FL (32547)

5:08 AM CDT on July 24, 2016 (GMT -0500)
Wright | | Change Station

Elev 75 ft 30.46 °N, 86.64 °W | Updated 2 minutes ago

Mostly Cloudy
Mostly Cloudy
74.5 °F
Feels Like 73 °F
N
3.2
Wind Variable Wind from NNE

Today
High -- | Low -- °F
--% Chance of Precip.
Yesterday
High -- | Low -- °F
Precip. -- in
Pressure 29.97 in
Visibility 10.0 miles
Clouds Scattered Clouds 2600 ft
Mostly Cloudy 3300 ft
Mostly Cloudy 5000 ft
Heat Index 73 °F
Dew Point 71 °F
Humidity 90%
Rainfall 0.00 in
Snow Depth Not available.
6:00 AM 7:45 PM
Waning Gibbous, 77% visible
METAR KHRT 240958Z 09007KT 10SM SCT026 BKN033 BKN050 25/24 A2996 RMK AO2A SLP147
Pressure 29.97 in
Visibility 10.0 miles
Clouds Scattered Clouds 2600 ft
Mostly Cloudy 3300 ft
Mostly Cloudy 5000 ft
Heat Index 73 °F
Dew Point 71 °F
Humidity 90%
Rainfall 0.00 in
Snow Depth Not available.
6:00 AM 7:45 PM
Waning Gibbous, 77% visible
METAR KHRT 240958Z 09007KT 10SM SCT026 BKN033 BKN050 25/24 A2996 RMK AO2A SLP147

10-Day Weather Forecast

Almanac

Astronomy

Jul. 24, 2016 Rise Set
Actual Time
Civil Twilight
Nautical Twilight
Astronomical Twilight
Moon
Length of Visible Light
Length of Day
Tomorrow will be .
, % of the Moon is Illuminated

Today's Extremes

State Highs State Lows

Community

WunderPhotos

Upload Photos

1,927,040 photos uploaded!

WunderBlog® & News

Nearby

Air Quality

  Air Quality AQ Index Pollutant
Not available.

Snow Depth

Station Depth Elevation

Earthquake Activity

City Distance Mag. Time & Date
Minimum magnitude displayed is 2.5.

Coastal Water Temperatures

Place Temperature

Stations

Nearby Weather Stations

Station Location Temp. Windchill Dew Point Humidity Wind Precip. Elev Updated Type
                   

Watches & Warnings

There are currently no watches in effect.